createdAt,value
2019-05-25T00:01:57.827Z,73.83
2019-05-25T00:04:27.888Z,74.29
2019-05-25T00:06:57.984Z,74.10
2019-05-25T00:09:28.046Z,74.02
2019-05-25T00:11:58.166Z,74.29
2019-05-25T00:14:28.252Z,73.87
2019-05-25T00:16:58.359Z,73.55
2019-05-25T00:19:28.437Z,73.64
2019-05-25T00:21:58.582Z,74.42
2019-05-25T00:24:28.643Z,73.75
2019-05-25T00:26:58.770Z,73.79
2019-05-25T00:29:28.856Z,73.89
2019-05-25T00:31:58.924Z,74.00
2019-05-25T00:34:29.019Z,74.13
2019-05-25T00:36:59.190Z,73.92
2019-05-25T00:39:29.247Z,73.55
2019-05-25T00:41:59.347Z,73.88
2019-05-25T00:44:29.953Z,73.92
2019-05-25T00:46:59.995Z,74.11
2019-05-25T00:49:30.111Z,75.15
2019-05-25T00:52:00.224Z,75.13
2019-05-25T00:54:30.399Z,75.44
2019-05-25T00:57:00.490Z,75.71
2019-05-25T00:59:30.640Z,75.23
2019-05-25T01:02:00.667Z,75.67
2019-05-25T01:04:30.737Z,74.87
2019-05-25T01:07:00.879Z,75.22
2019-05-25T01:09:30.939Z,75.10
2019-05-25T01:12:01.211Z,75.04
2019-05-25T01:14:31.284Z,74.31
2019-05-25T01:17:01.414Z,73.82
2019-05-25T01:19:31.533Z,74.48
2019-05-25T01:22:01.595Z,74.20
2019-05-25T01:24:44.035Z,72.98
2019-05-25T01:27:03.497Z,73.35
2019-05-25T01:29:33.582Z,72.62
2019-05-25T01:32:03.671Z,73.33
2019-05-25T01:34:33.740Z,72.89
2019-05-25T01:37:03.846Z,72.09
2019-05-25T01:39:33.927Z,72.37
2019-05-25T01:42:04.049Z,72.35
2019-05-25T01:44:34.485Z,72.67
2019-05-25T01:47:04.563Z,72.38
2019-05-25T01:49:34.619Z,72.90
2019-05-25T01:52:04.729Z,72.73
2019-05-25T01:54:34.815Z,72.64
2019-05-25T01:57:04.890Z,73.46
2019-05-25T01:59:34.957Z,73.71
2019-05-25T02:02:05.061Z,74.11
2019-05-25T02:04:35.185Z,74.53
2019-05-25T02:07:05.360Z,74.66
2019-05-25T02:09:35.430Z,75.27
2019-05-25T02:12:05.686Z,75.59
2019-05-25T02:14:35.761Z,76.22
2019-05-25T02:17:05.983Z,76.51
2019-05-25T02:19:36.083Z,76.93
2019-05-25T02:22:06.215Z,77.23
2019-05-25T02:24:36.300Z,77.17
2019-05-25T02:27:06.386Z,77.46
2019-05-25T02:29:36.459Z,77.60
2019-05-25T02:32:06.571Z,78.21
2019-05-25T02:34:36.630Z,77.95
2019-05-25T02:37:06.696Z,78.21
2019-05-25T02:39:36.793Z,78.10
2019-05-25T02:42:06.882Z,77.96
2019-05-25T02:44:36.955Z,77.71
2019-05-25T02:47:07.024Z,77.69
2019-05-25T02:49:37.103Z,77.97
2019-05-25T02:52:07.302Z,77.96
2019-05-25T02:54:37.421Z,77.90
2019-05-25T02:57:07.611Z,78.12
2019-05-25T02:59:37.673Z,78.06
2019-05-25T03:02:07.755Z,78.17
2019-05-25T03:04:37.896Z,78.35
2019-05-25T03:07:08.677Z,78.36
2019-05-25T03:09:40.958Z,78.22
2019-05-25T03:12:11.042Z,78.30
2019-05-25T03:14:41.176Z,78.01
2019-05-25T03:17:11.279Z,77.90
2019-05-25T03:19:41.356Z,77.90
2019-05-25T03:22:11.442Z,77.17
2019-05-25T03:24:41.502Z,77.62
2019-05-25T03:27:11.614Z,77.72
2019-05-25T03:29:41.676Z,77.67
2019-05-25T03:32:11.739Z,77.44
2019-05-25T03:34:41.937Z,77.33
2019-05-25T03:37:12.006Z,77.74
2019-05-25T03:39:42.083Z,78.09
2019-05-25T03:42:12.187Z,78.36
2019-05-25T03:44:42.258Z,78.22
2019-05-25T03:47:12.379Z,78.58
2019-05-25T03:49:42.463Z,78.45
2019-05-25T03:52:12.545Z,78.80
2019-05-25T03:54:42.623Z,79.39
2019-05-25T03:57:12.714Z,79.39
2019-05-25T03:59:42.782Z,79.40
2019-05-25T04:02:12.842Z,79.37
2019-05-25T04:04:42.992Z,79.18
2019-05-25T04:07:13.048Z,78.92
2019-05-25T04:09:43.116Z,79.02
2019-05-25T04:12:13.198Z,78.40
2019-05-25T04:14:43.284Z,78.01
2019-05-25T04:17:13.349Z,78.39
2019-05-25T04:19:43.467Z,78.04
2019-05-25T04:22:13.553Z,77.51
2019-05-25T04:24:43.671Z,77.51
2019-05-25T04:27:13.702Z,77.60
2019-05-25T04:29:43.822Z,77.41
2019-05-25T04:32:13.897Z,76.63
2019-05-25T04:34:44.046Z,76.42
2019-05-25T04:37:14.118Z,77.14
2019-05-25T04:39:44.214Z,76.60
2019-05-25T04:42:14.293Z,76.64
2019-05-25T04:44:44.357Z,76.24
2019-05-25T04:47:26.541Z,76.46
2019-05-25T04:49:46.306Z,76.77
2019-05-25T04:52:16.372Z,76.91
2019-05-25T04:54:46.458Z,76.54
2019-05-25T04:57:16.673Z,77.00
2019-05-25T04:59:47.004Z,76.90
2019-05-25T05:02:17.106Z,76.80
2019-05-25T05:04:47.227Z,76.75
2019-05-25T05:07:17.313Z,76.01
2019-05-25T05:10:01.434Z,75.69
2019-05-25T05:12:19.176Z,76.23
2019-05-25T05:14:49.275Z,76.02
2019-05-25T05:17:19.352Z,75.86
2019-05-25T05:19:49.463Z,75.09
2019-05-25T05:22:19.537Z,74.71
2019-05-25T05:24:49.628Z,74.21
2019-05-25T05:27:19.705Z,73.70
2019-05-25T05:29:49.803Z,72.33
2019-05-25T05:32:27.419Z,72.29
2019-05-25T05:34:52.324Z,71.27
2019-05-25T05:37:24.870Z,70.38
2019-05-25T05:39:57.306Z,70.27
2019-05-25T05:42:28.846Z,69.85
2019-05-25T05:45:00.052Z,70.99
2019-05-25T05:47:31.694Z,70.34
2019-05-25T05:50:03.619Z,69.75
2019-05-25T05:52:37.756Z,69.55
2019-05-25T05:55:10.147Z,69.42
2019-05-25T05:57:40.255Z,68.92
2019-05-25T06:00:12.555Z,67.76
2019-05-25T06:02:42.578Z,68.59
2019-05-25T06:05:12.677Z,68.20
2019-05-25T06:07:42.722Z,68.03
2019-05-25T06:10:13.059Z,68.35
2019-05-25T06:12:43.148Z,67.71
2019-05-25T06:15:13.441Z,67.82
2019-05-25T06:17:43.518Z,66.09
2019-05-25T06:20:14.411Z,66.88
2019-05-25T06:22:44.535Z,67.01
2019-05-25T06:25:15.235Z,65.93
2019-05-25T06:27:45.337Z,64.61
2019-05-25T06:30:15.853Z,64.16
2019-05-25T06:32:46.010Z,64.44
2019-05-25T06:35:16.210Z,63.00
2019-05-25T06:37:46.317Z,63.27
2019-05-25T06:40:16.713Z,64.21
2019-05-25T06:42:46.844Z,64.16
2019-05-25T06:45:17.859Z,65.44
2019-05-25T06:47:47.957Z,64.69
2019-05-25T06:50:18.163Z,64.14
2019-05-25T06:52:48.255Z,64.32
2019-05-25T06:55:18.361Z,64.32
2019-05-25T06:57:48.476Z,65.38
2019-05-25T07:00:19.193Z,65.42
2019-05-25T07:02:49.320Z,65.69
2019-05-25T07:05:19.431Z,65.40
2019-05-25T07:07:49.496Z,65.41
2019-05-25T07:10:19.772Z,66.08
2019-05-25T07:12:50.657Z,65.95
2019-05-25T07:15:21.208Z,66.41
2019-05-25T07:17:51.295Z,65.97
2019-05-25T07:20:21.508Z,66.24
2019-05-25T07:22:51.630Z,64.87
2019-05-25T07:25:21.771Z,64.22
2019-05-25T07:27:59.867Z,63.63
2019-05-25T07:30:23.725Z,64.36
2019-05-25T07:32:53.801Z,63.68
2019-05-25T07:35:23.888Z,63.47
2019-05-25T07:37:54.412Z,62.42
2019-05-25T07:40:25.597Z,61.83
2019-05-25T07:42:55.729Z,61.36
2019-05-25T07:45:25.799Z,61.12
2019-05-25T07:47:55.941Z,61.37
2019-05-25T07:50:26.105Z,60.25
2019-05-25T07:52:56.251Z,59.36
2019-05-25T07:55:26.333Z,58.31
2019-05-25T07:57:56.493Z,57.27
2019-05-25T08:00:26.581Z,56.51
2019-05-25T08:02:57.137Z,57.02
2019-05-25T08:05:27.255Z,58.15
2019-05-25T08:07:57.391Z,58.59
2019-05-25T08:10:27.451Z,58.17
2019-05-25T08:12:57.651Z,58.88
2019-05-25T08:15:27.759Z,58.98
2019-05-25T08:17:58.295Z,58.49
2019-05-25T08:20:28.378Z,59.43
2019-05-25T08:22:58.467Z,59.09
2019-05-25T08:25:28.884Z,58.80
2019-05-25T08:27:58.980Z,58.04
2019-05-25T08:30:29.076Z,58.23
2019-05-25T08:32:59.403Z,57.79
2019-05-25T08:35:29.514Z,58.30
2019-05-25T08:37:59.596Z,58.40
2019-05-25T08:40:29.722Z,57.31
2019-05-25T08:42:59.845Z,57.48
2019-05-25T08:45:29.967Z,57.57
2019-05-25T08:48:00.108Z,57.47
2019-05-25T08:50:38.379Z,56.58
2019-05-25T08:53:04.129Z,54.85
2019-05-25T08:55:34.290Z,54.08
2019-05-25T08:58:23.753Z,54.08
2019-05-25T09:00:53.872Z,52.23
2019-05-25T09:03:24.046Z,51.29
2019-05-25T09:05:54.122Z,49.44
2019-05-25T09:08:24.246Z,50.51
2019-05-25T09:10:54.368Z,51.38
2019-05-25T09:13:24.553Z,51.64
2019-05-25T09:15:54.661Z,52.79
2019-05-25T09:18:24.790Z,52.78
2019-05-25T09:20:54.913Z,53.25
2019-05-25T09:23:25.078Z,53.36
2019-05-25T09:25:56.113Z,53.45
2019-05-25T09:28:26.256Z,54.10
2019-05-25T09:30:56.457Z,54.22
2019-05-25T09:33:26.560Z,54.55
2019-05-25T09:35:56.631Z,55.48
2019-05-25T09:38:26.795Z,56.59
2019-05-25T09:40:56.830Z,57.53
2019-05-25T09:43:27.014Z,56.60
2019-05-25T09:45:57.093Z,57.28
2019-05-25T09:48:27.248Z,57.48
2019-05-25T09:50:57.356Z,57.66
2019-05-25T09:53:27.428Z,57.48
2019-05-25T09:55:57.578Z,57.34
2019-05-25T09:58:29.827Z,56.60
2019-05-25T10:00:59.602Z,56.63
2019-05-25T10:03:29.701Z,55.75
2019-05-25T10:05:59.904Z,55.52
2019-05-25T10:08:29.995Z,54.98
2019-05-25T10:11:00.098Z,55.42
2019-05-25T10:13:30.177Z,56.46
2019-05-25T10:16:00.288Z,55.53
2019-05-25T10:18:30.377Z,55.34
2019-05-25T10:21:00.482Z,54.16
2019-05-25T10:23:30.590Z,54.29
2019-05-25T10:26:00.934Z,52.75
2019-05-25T10:28:31.036Z,53.25
2019-05-25T10:31:01.138Z,51.91
2019-05-25T10:33:31.508Z,51.70
2019-05-25T10:36:01.838Z,50.14
2019-05-25T10:38:31.979Z,50.00
2019-05-25T10:41:02.048Z,50.29
2019-05-25T10:43:32.209Z,49.92
2019-05-25T10:46:02.327Z,48.11
2019-05-25T10:48:32.418Z,47.05
2019-05-25T10:51:02.528Z,47.93
2019-05-25T10:53:32.630Z,49.36
2019-05-25T10:56:02.714Z,49.35
2019-05-25T10:58:32.819Z,50.68
2019-05-25T11:01:02.916Z,52.60
2019-05-25T11:03:33.017Z,53.02
2019-05-25T11:06:03.098Z,53.34
2019-05-25T11:08:33.201Z,53.12
2019-05-25T11:11:03.298Z,53.56
2019-05-25T11:13:33.417Z,54.98
2019-05-25T11:16:03.494Z,55.09
2019-05-25T11:18:33.614Z,53.80
2019-05-25T11:21:03.721Z,52.99
2019-05-25T11:23:33.818Z,50.58
2019-05-25T11:26:03.889Z,49.84
2019-05-25T11:28:38.519Z,47.08
2019-05-25T11:31:08.618Z,48.76
2019-05-25T11:33:38.721Z,49.48
2019-05-25T11:36:08.832Z,49.96
2019-05-25T11:38:38.924Z,50.15
2019-05-25T11:41:09.052Z,51.20
2019-05-25T11:43:39.222Z,51.51
2019-05-25T11:46:09.331Z,51.22
2019-05-25T11:48:39.428Z,48.92
2019-05-25T11:51:09.516Z,46.73
2019-05-25T11:53:39.579Z,47.60
2019-05-25T11:56:09.665Z,46.04
2019-05-25T11:58:47.415Z,45.24
2019-05-25T12:01:14.620Z,46.34
2019-05-25T12:03:44.729Z,50.36
2019-05-25T12:06:14.891Z,51.53
2019-05-25T12:08:45.177Z,51.24
2019-05-25T12:11:15.332Z,51.51
2019-05-25T12:13:45.422Z,50.81
2019-05-25T12:16:15.513Z,50.12
2019-05-25T12:18:45.730Z,45.99
2019-05-25T12:21:15.821Z,48.00
2019-05-25T12:23:45.929Z,46.85
2019-05-25T12:26:16.020Z,46.42
2019-05-25T12:28:46.089Z,47.00
2019-05-25T12:31:16.308Z,48.79
2019-05-25T12:33:46.400Z,49.11
2019-05-25T12:36:16.656Z,48.02
2019-05-25T12:38:46.714Z,46.19
2019-05-25T12:41:16.861Z,47.45
2019-05-25T12:43:47.043Z,49.08
2019-05-25T12:46:17.148Z,50.76
2019-05-25T12:48:50.501Z,52.43
2019-05-25T12:51:20.603Z,52.71
2019-05-25T12:53:50.775Z,52.67
2019-05-25T12:56:20.959Z,50.62
2019-05-25T12:58:51.029Z,50.77
2019-05-25T13:01:21.382Z,47.93
2019-05-25T13:03:51.472Z,48.80
2019-05-25T13:06:21.573Z,50.40
2019-05-25T13:09:04.261Z,51.08
2019-05-25T13:11:34.367Z,52.79
2019-05-25T13:14:14.199Z,53.72
2019-05-25T13:20:21.553Z,52.42
2019-05-25T13:22:51.705Z,51.77
2019-05-25T13:25:21.826Z,52.24
2019-05-25T13:27:51.994Z,52.33
2019-05-25T13:30:22.132Z,51.38
2019-05-25T13:32:54.579Z,51.10
2019-05-25T13:40:19.578Z,52.34
2019-05-25T13:42:49.690Z,54.23
2019-05-25T13:45:19.904Z,53.78
2019-05-25T13:47:50.962Z,55.08
2019-05-25T13:50:21.238Z,55.96
2019-05-25T13:52:51.434Z,57.09
2019-05-25T13:55:22.181Z,56.01
2019-05-25T13:57:52.324Z,56.75
2019-05-25T14:00:22.518Z,56.35
2019-05-25T14:02:52.636Z,55.36
2019-05-25T14:05:22.986Z,55.64
2019-05-25T14:07:54.817Z,54.49
2019-05-25T14:10:27.341Z,53.24
2019-05-25T14:13:00.314Z,53.41
2019-05-25T14:15:30.432Z,50.57
2019-05-25T14:18:00.971Z,50.70
2019-05-25T14:20:31.055Z,48.78
2019-05-25T14:23:03.942Z,49.35
2019-05-25T14:25:34.406Z,47.47
2019-05-25T14:28:08.357Z,47.23
2019-05-25T14:30:38.528Z,49.54
2019-05-25T14:33:08.718Z,49.61
2019-05-25T14:35:40.965Z,48.13
2019-05-25T14:38:11.487Z,48.20
2019-05-25T14:40:41.604Z,49.47
2019-05-25T14:43:11.730Z,51.16
2019-05-25T14:45:42.175Z,52.20
2019-05-25T14:48:12.381Z,52.45
2019-05-25T14:50:42.460Z,52.86
2019-05-25T14:53:12.577Z,52.17
2019-05-25T14:55:42.703Z,52.80
2019-05-25T14:58:13.055Z,52.46
2019-05-25T15:00:43.269Z,51.93
2019-05-25T15:03:13.339Z,51.66
2019-05-25T15:05:43.595Z,52.67
2019-05-25T15:08:13.749Z,52.60
2019-05-25T15:10:44.261Z,53.04
2019-05-25T15:13:14.974Z,53.35
2019-05-25T15:15:45.056Z,53.71
2019-05-25T15:18:15.186Z,54.16
2019-05-25T15:20:48.589Z,54.26
2019-05-25T15:23:19.541Z,55.09
2019-05-25T15:25:49.999Z,54.00
2019-05-25T15:28:20.131Z,56.21
2019-05-25T15:30:50.285Z,55.18
2019-05-25T15:33:20.477Z,55.16
2019-05-25T15:35:50.664Z,55.34
2019-05-25T15:38:21.325Z,54.94
2019-05-25T15:40:51.547Z,54.22
2019-05-25T15:43:21.889Z,54.12
2019-05-25T15:45:52.006Z,53.98
2019-05-25T15:48:25.626Z,54.23
2019-05-25T15:50:54.419Z,54.37
2019-05-25T15:53:24.504Z,54.67
2019-05-25T15:55:54.625Z,54.57
2019-05-25T15:58:24.709Z,55.08
2019-05-25T16:00:56.475Z,54.86
2019-05-25T16:03:26.724Z,55.55
2019-05-25T16:05:57.102Z,55.20
2019-05-25T16:08:27.234Z,55.98
2019-05-25T16:11:01.937Z,56.31
2019-05-25T16:13:32.137Z,57.47
2019-05-25T16:16:02.354Z,58.02
2019-05-25T16:18:32.454Z,58.02
2019-05-25T16:21:02.768Z,57.73
2019-05-25T16:23:32.884Z,58.38
2019-05-25T16:26:03.139Z,57.07
2019-05-25T16:28:39.594Z,57.84
2019-05-25T16:31:09.763Z,57.48
2019-05-25T16:33:40.047Z,58.50
2019-05-25T16:36:10.129Z,57.29
2019-05-25T16:38:40.352Z,57.70
2019-05-25T16:41:10.449Z,57.49
2019-05-25T16:43:40.831Z,57.40
2019-05-25T16:46:11.071Z,56.76
2019-05-25T16:48:41.249Z,56.92
2019-05-25T16:51:11.398Z,56.24
2019-05-25T16:53:41.496Z,56.68
2019-05-25T16:56:11.588Z,56.61
2019-05-25T16:58:41.710Z,56.80
2019-05-25T17:01:11.815Z,57.79
2019-05-25T17:03:41.911Z,57.95
2019-05-25T17:06:12.041Z,58.11
2019-05-25T17:08:42.159Z,57.99
2019-05-25T17:11:12.317Z,58.34
2019-05-25T17:13:42.415Z,58.12
2019-05-25T17:16:12.505Z,57.34
2019-05-25T17:18:42.624Z,57.39
2019-05-25T17:21:12.819Z,57.12
2019-05-25T17:23:42.981Z,57.41
2019-05-25T17:26:13.129Z,58.51
2019-05-25T17:28:43.236Z,59.12
2019-05-25T17:31:13.374Z,59.68
2019-05-25T17:33:46.434Z,59.82
2019-05-25T17:36:15.328Z,59.38
2019-05-25T17:38:45.447Z,60.07
2019-05-25T17:41:15.621Z,60.11
2019-05-25T17:43:45.765Z,60.51
2019-05-25T17:46:34.930Z,61.23
2019-05-25T17:49:05.085Z,60.95
2019-05-25T17:51:35.191Z,60.83
2019-05-25T17:54:05.704Z,60.88
2019-05-25T17:56:35.926Z,60.53
2019-05-25T17:59:06.053Z,61.20
2019-05-25T18:01:36.273Z,61.03
2019-05-25T18:04:07.832Z,61.19
2019-05-25T18:06:38.408Z,61.06
2019-05-25T18:09:08.919Z,61.29
2019-05-25T18:11:39.077Z,61.44
2019-05-25T18:14:09.215Z,61.81
2019-05-25T18:16:39.624Z,61.78
2019-05-25T18:19:09.719Z,62.08
2019-05-25T18:21:39.841Z,62.09
2019-05-25T18:24:09.980Z,62.49
2019-05-25T18:26:40.093Z,62.92
2019-05-25T18:29:10.268Z,62.75
2019-05-25T18:31:40.453Z,63.08
2019-05-25T18:34:21.787Z,63.29
2019-05-25T18:36:42.618Z,63.10
2019-05-25T18:39:13.131Z,63.33
2019-05-25T18:41:43.234Z,64.08
2019-05-25T18:44:13.348Z,63.88
2019-05-25T18:46:43.735Z,63.96
2019-05-25T18:49:13.880Z,64.22
2019-05-25T18:51:44.016Z,64.49
2019-05-25T18:54:14.126Z,64.12
2019-05-25T18:56:44.313Z,65.08
2019-05-25T18:59:14.657Z,64.46
2019-05-25T19:01:44.979Z,64.81
2019-05-25T19:04:15.275Z,64.70
2019-05-25T19:06:45.387Z,65.63
2019-05-25T19:09:15.509Z,65.87
2019-05-25T19:11:45.662Z,65.78
2019-05-25T19:14:15.909Z,65.94
2019-05-25T19:16:46.017Z,66.32
2019-05-25T19:19:16.125Z,66.44
2019-05-25T19:21:46.316Z,66.51
2019-05-25T19:24:16.445Z,66.92
2019-05-25T19:26:46.574Z,65.96
2019-05-25T19:29:17.176Z,65.58
2019-05-25T19:31:47.266Z,65.98
2019-05-25T19:34:17.474Z,65.79
2019-05-25T19:36:47.674Z,65.76
2019-05-25T19:39:17.802Z,65.76
2019-05-25T19:41:48.088Z,63.65
2019-05-25T19:44:18.217Z,64.70
2019-05-25T19:46:48.344Z,64.80
2019-05-25T19:49:18.516Z,64.57
2019-05-25T19:51:48.668Z,64.59
2019-05-25T19:54:18.794Z,64.16
2019-05-25T19:56:49.036Z,64.78
2019-05-25T19:59:19.319Z,64.83
2019-05-25T20:01:49.502Z,64.94
2019-05-25T20:04:19.636Z,64.79
2019-05-25T20:06:49.778Z,64.89
2019-05-25T20:09:19.945Z,65.07
2019-05-25T20:11:50.108Z,65.29
2019-05-25T20:14:21.388Z,65.13
2019-05-25T20:16:51.542Z,66.16
2019-05-25T20:19:21.683Z,65.56
2019-05-25T20:21:51.818Z,65.74
2019-05-25T20:24:22.081Z,65.97
2019-05-25T20:26:52.201Z,66.10
2019-05-25T20:29:22.309Z,66.21
2019-05-25T20:31:52.457Z,66.26
2019-05-25T20:34:22.608Z,66.63
2019-05-25T20:36:52.753Z,66.90
2019-05-25T20:39:22.859Z,67.50
2019-05-25T20:41:53.132Z,67.72
2019-05-25T20:44:23.267Z,67.93
2019-05-25T20:46:53.330Z,68.33
2019-05-25T20:49:23.448Z,69.02
2019-05-25T20:51:53.819Z,68.78
2019-05-25T20:54:24.131Z,69.49
2019-05-25T20:56:54.252Z,69.80
2019-05-25T20:59:24.467Z,70.25
2019-05-25T21:01:54.528Z,70.56
2019-05-25T21:04:24.667Z,71.15
2019-05-25T21:06:54.784Z,70.98
2019-05-25T21:09:24.972Z,71.37
2019-05-25T21:11:56.215Z,71.50
2019-05-25T21:14:26.646Z,71.66
2019-05-25T21:16:56.916Z,72.53
2019-05-25T21:19:26.991Z,72.44
2019-05-25T21:21:57.220Z,72.63
2019-05-25T21:24:27.453Z,72.51
2019-05-25T21:26:57.571Z,72.69
2019-05-25T21:29:27.679Z,73.19
2019-05-25T21:31:57.785Z,74.06
2019-05-25T21:34:27.927Z,73.98
2019-05-25T21:36:58.034Z,73.99
2019-05-25T21:39:28.103Z,74.00
2019-05-25T21:41:58.223Z,73.67
2019-05-25T21:44:28.319Z,73.89
2019-05-25T21:46:58.592Z,74.00
2019-05-25T21:49:28.745Z,73.65
2019-05-25T21:52:03.627Z,72.97
2019-05-25T21:54:33.784Z,74.02
2019-05-25T21:57:13.504Z,74.06
2019-05-25T21:59:43.668Z,74.02
2019-05-25T22:02:14.664Z,74.11
2019-05-25T22:04:49.691Z,74.04
2019-05-25T22:07:28.093Z,73.92
2019-05-25T22:09:58.270Z,74.36
2019-05-25T22:12:28.823Z,74.98
2019-05-25T22:14:59.118Z,75.00
2019-05-25T22:17:29.216Z,75.36
2019-05-25T22:19:59.537Z,75.25
2019-05-25T22:22:32.781Z,75.47
2019-05-25T22:25:02.904Z,75.79
2019-05-25T22:27:33.207Z,76.04
2019-05-25T22:30:03.313Z,75.85
2019-05-25T22:32:33.545Z,76.15
2019-05-25T22:35:03.880Z,76.64
2019-05-25T22:37:33.973Z,76.59
2019-05-25T22:40:04.319Z,76.98
2019-05-25T22:42:34.403Z,77.03
2019-05-25T22:45:04.648Z,77.70
2019-05-25T22:47:34.737Z,77.32
2019-05-25T22:50:05.707Z,77.32
2019-05-25T22:52:35.811Z,76.88
2019-05-25T22:55:06.652Z,77.26
2019-05-25T22:57:36.756Z,77.18
2019-05-25T23:00:08.480Z,77.63
2019-05-25T23:02:38.678Z,77.57
2019-05-25T23:05:09.364Z,77.44
2019-05-25T23:07:39.475Z,77.63
2019-05-25T23:10:09.936Z,77.70
2019-05-25T23:12:40.048Z,77.49
2019-05-25T23:15:10.632Z,77.84
2019-05-25T23:17:40.749Z,77.84
2019-05-25T23:20:11.111Z,78.33
2019-05-25T23:22:41.182Z,77.74
2019-05-25T23:25:11.415Z,77.77
2019-05-25T23:27:41.484Z,78.10
2019-05-25T23:30:12.319Z,78.33
2019-05-25T23:32:42.363Z,78.11
2019-05-25T23:35:12.440Z,78.53
2019-05-25T23:37:42.526Z,78.62
2019-05-25T23:40:12.875Z,79.11
2019-05-25T23:42:42.992Z,78.57
2019-05-25T23:45:15.520Z,78.94
2019-05-25T23:47:45.535Z,78.88
2019-05-25T23:50:15.845Z,79.19
2019-05-25T23:52:45.924Z,79.19
2019-05-25T23:55:16.340Z,79.20
2019-05-25T23:57:46.408Z,79.42
